Time;durP1;ratioP1;P1;durP2;ratioP2;P2;SDS_P1;SDS_P2;PMS_P1;PMS_P2;Temp;Humidity;BMP_temperature;BMP_pressure;BME280_temperature;BME280_humidity;BME280_pressure;Samples;Min_cycle;Max_cycle;Signal;HPM_P1;HPM_P2
2023/06/20 00:00:56;;;;;;;;;;;;;;;22.63;53.72;99844.06;5283309;27;33678;-84
2023/06/20 00:03:24;;;;;;;;;;;;;;;22.66;54.17;99842.94;5302039;27;34491;-84
2023/06/20 00:05:51;;;;;;;;;;;;;;;22.72;53.72;99843.22;5265895;27;32439;-84
2023/06/20 00:08:19;;;;;;;;;;;;;;;22.71;53.60;99843.38;5301970;27;34221;-83
2023/06/20 00:10:46;;;;;;;;;;;;;;;22.56;53.88;99848.34;5283643;27;32787;-83
2023/06/20 00:13:17;;;;;;;;;;;;;;;22.59;53.83;99848.03;5302210;27;34891;-83
2023/06/20 00:15:45;;;;;;;;;;;;;;;22.56;54.21;99848.34;5284372;27;32855;-84
2023/06/20 00:18:12;;;;;;;;;;;;;;;22.61;54.12;99846.06;5284162;27;34875;-83
2023/06/20 00:20:40;;;;;;;;;;;;;;;22.56;54.37;99845.66;5301752;27;33576;-83
2023/06/20 00:23:07;;;;;;;;;;;;;;;22.52;54.62;99849.63;5302024;27;34165;-83
2023/06/20 00:25:35;;;;;;;;;;;;;;;22.48;54.78;99857.09;5273107;27;33184;-83
2023/06/20 00:28:02;;;;;;;;;;;;;;;22.45;54.91;99853.84;5301500;27;34195;-84
2023/06/20 00:30:30;;;;;;;;;;;;;;;22.49;54.52;99858.81;5319881;27;33947;-84
2023/06/20 00:32:58;;;;;;;;;;;;;;;22.39;54.65;99846.34;5319568;27;34236;-84
2023/06/20 00:35:26;;;;;;;;;;;;;;;22.43;54.44;99854.00;5301824;27;33249;-84
2023/06/20 00:37:54;;;;;;;;;;;;;;;22.45;54.45;99862.75;5301700;27;34120;-84
2023/06/20 00:40:22;;;;;;;;;;;;;;;22.47;54.17;99849.19;5320276;27;34800;-83
2023/06/20 00:42:50;;;;;;;;;;;;;;;22.51;53.74;99850.59;5301525;27;33613;-84
2023/06/20 00:45:23;;;;;;;;;;;;;;;22.41;53.99;99852.47;5323733;26;33627;-84
2023/06/20 00:47:53;;;;;;;;;;;;;;;22.43;53.99;99848.63;5324165;26;34190;-84
2023/06/20 00:50:26;;;;;;;;;;;;;;;22.31;54.53;99859.66;5323315;26;33428;-84
2023/06/20 00:53:01;;;;;;;;;;;;;;;22.48;54.02;99853.56;5324811;26;35004;-84
2023/06/20 00:55:29;;;;;;;;;;;;;;;22.34;54.81;99854.84;5305435;26;32561;-83
2023/06/20 00:57:59;;;;;;;;;;;;;;;22.16;55.25;99852.00;5324103;26;34921;-83
2023/06/20 01:00:32;;;;;;;;;;;;;;;22.12;55.32;99850.56;5323899;26;35197;-83
2023/06/20 01:03:04;;;;;;;;;;;;;;;22.08;55.72;99851.81;5306385;26;33680;-83
2023/06/20 01:05:31;;;;;;;;;;;;;;;22.12;55.66;99847.87;5305841;26;33119;-83
2023/06/20 01:08:02;;;;;;;;;;;;;;;22.15;55.56;99850.28;5302128;26;33147;-83
2023/06/20 01:10:30;;;;;;;;;;;;;;;22.13;55.33;99852.28;5302832;26;33941;-82
2023/06/20 01:13:09;;;;;;;;;;;;;;;22.07;55.61;99852.78;5343188;26;33409;-83
2023/06/20 01:15:43;;;;;;;;;;;;;;;22.14;55.49;99853.12;5324230;26;34508;-83
2023/06/20 01:18:14;;;;;;;;;;;;;;;22.00;55.79;99848.97;5323720;26;33561;-83
2023/06/20 01:20:45;;;;;;;;;;;;;;;;;;5323959;26;35132;-83
2023/06/20 01:23:23;;;;;;;;;;;;;;;21.89;56.15;99855.34;5343267;26;33657;-83
2023/06/20 01:26:18;;;;;;;;;;;;;;;21.86;56.46;99854.75;5305786;26;33647;-83
2023/06/20 01:28:57;;;;;;;;;;;;;;;21.89;56.30;99859.84;5319379;26;33839;-83
2023/06/20 01:31:29;;;;;;;;;;;;;;;21.81;56.46;99855.16;5323987;26;33941;-83
2023/06/20 01:33:57;;;;;;;;;;;;;;;21.87;56.09;99857.28;5323464;26;34252;-83
2023/06/20 01:36:24;;;;;;;;;;;;;;;22.03;55.44;99856.78;5305341;26;33349;-83
2023/06/20 01:38:54;;;;;;;;;;;;;;;21.89;55.82;99852.62;5305300;26;33898;-83
2023/06/20 01:41:22;;;;;;;;;;;;;;;22.02;55.36;99854.19;5305131;26;33644;-82
2023/06/20 01:43:50;;;;;;;;;;;;;;;21.61;56.81;99856.94;5305282;26;34885;-83
2023/06/20 01:46:18;;;;;;;;;;;;;;;21.62;56.47;99858.63;5304997;26;34298;-83
2023/06/20 01:48:45;;;;;;;;;;;;;;;21.59;56.64;99869.66;5323467;26;34640;-82
2023/06/20 01:51:13;;;;;;;;;;;;;;;21.69;56.33;99857.09;5304548;26;33740;-82
2023/06/20 01:53:41;;;;;;;;;;;;;;;21.62;56.35;99853.25;5305266;26;35177;-83
2023/06/20 01:56:08;;;;;;;;;;;;;;;21.54;56.10;99850.41;5323134;26;33640;-83
2023/06/20 01:58:36;;;;;;;;;;;;;;;21.51;56.60;99848.00;5323913;26;33977;-83
2023/06/20 02:01:04;;;;;;;;;;;;;;;21.50;56.60;99848.97;5324083;26;35075;-83
2023/06/20 02:03:31;;;;;;;;;;;;;;;21.44;56.90;99846.81;5305939;26;33189;-83
2023/06/20 02:05:59;;;;;;;;;;;;;;;21.74;55.74;99845.94;5322978;26;33155;-83
2023/06/20 02:08:27;;;;;;;;;;;;;;;21.49;56.22;99841.91;5305585;26;33185;-83
2023/06/20 02:10:55;;;;;;;;;;;;;;;21.32;56.95;99839.88;5306450;26;35127;-83
2023/06/20 02:13:23;;;;;;;;;;;;;;;21.29;57.01;99850.84;5305658;26;33133;-82
2023/06/20 02:15:51;;;;;;;;;;;;;;;21.27;57.01;99848.28;5324210;26;33658;-83
2023/06/20 02:18:20;;;;;;;;;;;;;;;21.35;56.74;99853.00;5306040;26;32624;-82
2023/06/20 02:20:52;;;;;;;;;;;;;;;21.28;57.19;99852.69;5287752;26;33380;-82
2023/06/20 02:23:23;;;;;;;;;;;;;;;21.25;57.61;99860.12;5324341;26;34129;-83
2023/06/20 02:25:50;;;;;;;;;;;;;;;21.32;57.34;99851.47;5305749;26;33096;-83
2023/06/20 02:28:18;;;;;;;;;;;;;;;21.18;57.84;99863.37;5287479;26;34419;-83
2023/06/20 02:30:45;;;;;;;;;;;;;;;21.09;58.61;99866.00;5305777;26;34187;-83
2023/06/20 02:33:13;;;;;;;;;;;;;;;21.04;58.58;99865.53;5324362;26;34490;-83
2023/06/20 02:35:40;;;;;;;;;;;;;;;21.16;58.22;99865.31;5323800;26;33451;-83
2023/06/20 02:38:08;;;;;;;;;;;;;;;21.17;57.87;99872.41;5324111;26;33838;-83
2023/06/20 02:40:36;;;;;;;;;;;;;;;21.32;57.24;99872.94;5324367;26;34680;-83
2023/06/20 02:43:04;;;;;;;;;;;;;;;21.18;57.80;99881.31;5324460;26;34326;-83
2023/06/20 02:45:32;;;;;;;;;;;;;;;21.07;58.19;99873.31;5305927;26;32364;-83
2023/06/20 02:48:07;;;;;;;;;;;;;;;20.97;58.31;99870.56;5305833;26;33750;-83
2023/06/20 02:50:44;;;;;;;;;;;;;;;20.96;58.34;99871.56;5305152;26;33188;-82
2023/06/20 02:53:21;;;;;;;;;;;;;;;21.12;57.77;99871.94;5324607;26;34497;-83
2023/06/20 02:55:54;;;;;;;;;;;;;;;21.13;57.60;99870.97;5306245;26;34160;-83
2023/06/20 02:58:21;;;;;;;;;;;;;;;21.09;57.88;99868.69;5324277;26;35097;-83
2023/06/20 03:00:50;;;;;;;;;;;;;;;21.07;57.81;99867.94;5324523;26;34967;-83
2023/06/20 03:03:18;;;;;;;;;;;;;;;20.96;57.88;99871.56;5305583;26;33382;-83
2023/06/20 03:05:46;;;;;;;;;;;;;;;21.11;57.40;99880.97;5324214;26;34388;-82
2023/06/20 03:08:15;;;;;;;;;;;;;;;21.09;57.31;99885.63;5305605;26;34024;-83
2023/06/20 03:10:42;;;;;;;;;;;;;;;21.03;57.76;99886.19;5305325;26;33390;-82
2023/06/20 03:13:13;;;;;;;;;;;;;;;21.11;57.44;99880.97;5306348;26;34274;-82
2023/06/20 03:15:41;;;;;;;;;;;;;;;21.00;57.68;99888.25;5288191;26;32551;-82
2023/06/20 03:18:11;;;;;;;;;;;;;;;21.06;58.02;99890.41;5323606;26;34148;-82
2023/06/20 03:20:43;;;;;;;;;;;;;;;20.86;58.85;99894.81;5306103;26;33137;-82
2023/06/20 03:23:11;;;;;;;;;;;;;;;20.81;58.80;99894.34;5343782;26;34666;-82
2023/06/20 03:25:39;;;;;;;;;;;;;;;20.71;59.23;99892.44;5323760;26;33550;-82
2023/06/20 03:28:06;;;;;;;;;;;;;;;20.86;58.93;99898.34;5287674;26;34374;-84
2023/06/20 03:30:34;;;;;;;;;;;;;;;20.91;58.91;99900.63;5306214;26;34701;-84
2023/06/20 03:33:02;;;;;;;;;;;;;;;21.06;58.63;99898.47;5305922;26;34474;-83
2023/06/20 03:35:30;;;;;;;;;;;;;;;20.92;58.89;99897.81;5305805;26;34317;-84
2023/06/20 03:37:57;;;;;;;;;;;;;;;21.05;58.58;99903.00;5305281;26;34071;-84
2023/06/20 03:40:25;;;;;;;;;;;;;;;20.99;58.79;99911.56;5323944;26;34447;-84
2023/06/20 03:42:52;;;;;;;;;;;;;;;21.37;57.48;99912.84;5343984;26;34569;-83
2023/06/20 03:45:20;;;;;;;;;;;;;;;21.37;57.38;99907.47;5324064;26;33760;-82
2023/06/20 03:47:47;;;;;;;;;;;;;;;21.35;57.37;99914.78;5305535;26;34160;-83
2023/06/20 03:50:15;;;;;;;;;;;;;;;21.21;58.56;99919.47;5306450;26;33990;-83
2023/06/20 03:52:44;;;;;;;;;;;;;;;21.25;58.99;99913.84;5343830;26;33647;-83
2023/06/20 03:55:11;;;;;;;;;;;;;;;21.34;58.90;99913.09;5324199;26;33769;-83
2023/06/20 03:57:38;;;;;;;;;;;;;;;21.45;58.60;99915.69;5305210;26;34093;-83
2023/06/20 04:00:12;;;;;;;;;;;;;;;21.58;58.36;99908.25;5323843;26;34197;-83
2023/06/20 04:02:45;;;;;;;;;;;;;;;21.70;58.14;99909.87;5307105;26;33716;-82
2023/06/20 04:05:13;;;;;;;;;;;;;;;21.80;57.81;99909.06;5325009;26;33694;-82
2023/06/20 04:07:44;;;;;;;;;;;;;;;21.89;57.67;99913.62;5305752;26;33836;-83
2023/06/20 04:10:14;;;;;;;;;;;;;;;22.19;56.77;99905.50;5305622;26;34497;-82
2023/06/20 04:12:42;;;;;;;;;;;;;;;22.20;56.71;99907.22;5305687;26;34910;-82
2023/06/20 04:15:10;;;;;;;;;;;;;;;22.06;57.50;99907.56;5323884;26;33656;-83
2023/06/20 04:17:39;;;;;;;;;;;;;;;22.26;57.00;99904.94;5305717;26;34884;-82
2023/06/20 04:20:14;;;;;;;;;;;;;;;22.43;56.27;99902.44;5287308;26;33455;-82
2023/06/20 04:22:44;;;;;;;;;;;;;;;22.63;55.71;99900.59;5306491;26;33262;-82
2023/06/20 04:25:13;;;;;;;;;;;;;;;22.70;55.44;99887.44;5305984;26;33914;-82
2023/06/20 04:27:41;;;;;;;;;;;;;;;22.93;54.90;99898.75;5324134;26;33761;-83
2023/06/20 04:30:08;;;;;;;;;;;;;;;23.19;53.85;99893.63;5305140;26;33184;-83
2023/06/20 04:32:37;;;;;;;;;;;;;;;23.07;54.44;99892.91;5269644;26;32892;-83
2023/06/20 04:35:05;;;;;;;;;;;;;;;22.99;54.71;99893.66;5305559;26;32745;-83
2023/06/20 04:37:33;;;;;;;;;;;;;;;23.14;54.73;99906.66;5323927;26;34586;-83
2023/06/20 04:40:00;;;;;;;;;;;;;;;23.42;53.68;99899.50;5287686;26;33184;-83
2023/06/20 04:42:30;;;;;;;;;;;;;;;23.38;54.35;99898.09;5306364;26;34753;-83
2023/06/20 04:44:58;;;;;;;;;;;;;;;23.41;54.07;99903.22;5324089;26;32914;-83
2023/06/20 04:47:26;;;;;;;;;;;;;;;23.61;53.58;99903.97;5323450;26;33025;-82
2023/06/20 04:49:53;;;;;;;;;;;;;;;23.61;52.97;99906.69;5323445;26;33190;-83
2023/06/20 04:52:20;;;;;;;;;;;;;;;23.51;53.31;99898.62;5323792;26;34336;-82
2023/06/20 04:54:48;;;;;;;;;;;;;;;23.52;54.06;99905.72;5323880;26;33375;-83
2023/06/20 04:57:17;;;;;;;;;;;;;;;23.45;54.04;99904.59;5305445;26;33311;-83
2023/06/20 04:59:46;;;;;;;;;;;;;;;23.54;53.63;99908.25;5305076;26;34170;-83
2023/06/20 05:02:14;;;;;;;;;;;;;;;23.70;53.34;99903.97;5323502;26;34511;-83
2023/06/20 05:04:41;;;;;;;;;;;;;;;23.59;53.08;99906.81;5323273;26;34340;-83
2023/06/20 05:07:09;;;;;;;;;;;;;;;23.78;51.45;99905.91;5305185;26;33488;-83
2023/06/20 05:09:38;;;;;;;;;;;;;;;23.97;50.72;99911.19;5305194;26;33907;-83
2023/06/20 05:12:05;;;;;;;;;;;;;;;24.15;51.07;99913.09;5305366;26;34437;-83
2023/06/20 05:14:33;;;;;;;;;;;;;;;24.45;51.14;99915.50;5305176;26;34279;-84
2023/06/20 05:17:00;;;;;;;;;;;;;;;24.49;50.64;99914.16;5286940;26;33186;-83
2023/06/20 05:19:28;;;;;;;;;;;;;;;24.72;49.67;99911.84;5305363;26;33606;-83
2023/06/20 05:21:55;;;;;;;;;;;;;;;24.70;49.63;99911.19;5323374;26;33485;-83
2023/06/20 05:24:23;;;;;;;;;;;;;;;24.69;50.16;99908.63;5323317;26;32785;-83
2023/06/20 05:26:50;;;;;;;;;;;;;;;24.70;50.26;99910.31;5343176;26;34162;-83
2023/06/20 05:29:18;;;;;;;;;;;;;;;24.77;49.61;99908.69;5305371;26;34975;-83
2023/06/20 05:31:45;;;;;;;;;;;;;;;24.67;50.37;99908.78;5309050;26;33734;-84
2023/06/20 05:34:13;;;;;;;;;;;;;;;24.74;51.03;99915.25;5307285;26;32307;-84
2023/06/20 05:36:44;;;;;;;;;;;;;;;24.75;50.71;99914.25;5325195;26;34270;-83
2023/06/20 05:39:12;;;;;;;;;;;;;;;24.84;50.55;99914.34;5306214;26;34145;-82
2023/06/20 05:41:41;;;;;;;;;;;;;;;25.24;49.08;99916.53;5324293;26;34070;-82
2023/06/20 05:44:08;;;;;;;;;;;;;;;25.31;50.23;99916.75;5324498;26;33219;-83
2023/06/20 05:46:36;;;;;;;;;;;;;;;25.43;48.37;99926.28;5287143;26;32991;-83
2023/06/20 05:49:03;;;;;;;;;;;;;;;25.46;48.74;99926.81;5305734;26;34028;-83
2023/06/20 05:51:31;;;;;;;;;;;;;;;25.61;49.26;99926.22;5324058;26;34505;-83
2023/06/20 05:53:59;;;;;;;;;;;;;;;25.70;48.31;99920.69;5324376;26;34641;-83
2023/06/20 05:56:26;;;;;;;;;;;;;;;25.50;49.38;99921.94;5304464;26;33360;-84
2023/06/20 05:58:53;;;;;;;;;;;;;;;25.52;49.24;99920.75;5323118;26;34255;-83
2023/06/20 06:01:21;;;;;;;;;;;;;;;25.87;48.14;99926.19;5305908;26;34424;-83
2023/06/20 06:03:49;;;;;;;;;;;;;;;26.22;47.50;99933.28;5305279;26;32923;-83
2023/06/20 06:06:16;;;;;;;;;;;;;;;26.18;47.34;99921.94;5323707;26;34064;-83
2023/06/20 06:08:44;;;;;;;;;;;;;;;26.57;45.93;99924.06;5305984;26;34791;-83
2023/06/20 06:11:12;;;;;;;;;;;;;;;26.67;47.27;99927.47;5324257;26;33714;-83
2023/06/20 06:13:40;;;;;;;;;;;;;;;26.43;46.40;99924.72;5323503;26;34434;-83
2023/06/20 06:16:07;;;;;;;;;;;;;;;26.80;45.86;99924.28;5305362;26;34090;-83
2023/06/20 06:18:35;;;;;;;;;;;;;;;26.72;45.33;99919.69;5306426;26;34205;-83
2023/06/20 06:21:03;;;;;;;;;;;;;;;26.91;44.97;99917.66;5305161;26;34018;-83
2023/06/20 06:23:30;;;;;;;;;;;;;;;26.81;44.90;99918.66;5324500;26;33353;-84
2023/06/20 06:25:58;;;;;;;;;;;;;;;26.82;44.53;99919.50;5323981;26;35041;-84
2023/06/20 06:28:27;;;;;;;;;;;;;;;27.03;44.16;99929.88;5305298;26;32933;-83
2023/06/20 06:30:58;;;;;;;;;;;;;;;27.43;43.77;99939.84;5324187;26;34143;-83
2023/06/20 06:33:28;;;;;;;;;;;;;;;27.67;42.85;99940.78;5306468;26;33346;-83
2023/06/20 06:35:56;;;;;;;;;;;;;;;27.74;41.64;99939.97;5324328;26;33419;-83
2023/06/20 06:38:23;;;;;;;;;;;;;;;27.94;42.57;99939.56;5323634;26;34255;-83
2023/06/20 06:40:54;;;;;;;;;;;;;;;27.98;42.08;99935.47;5318864;26;35104;-83
2023/06/20 06:43:23;;;;;;;;;;;;;;;27.84;41.46;99938.94;5319512;26;33881;-83
2023/06/20 06:45:51;;;;;;;;;;;;;;;28.03;41.38;99935.78;5303268;26;33766;-83
2023/06/20 06:48:19;;;;;;;;;;;;;;;27.61;42.02;99942.34;5320826;26;33609;-84
2023/06/20 06:50:46;;;;;;;;;;;;;;;27.98;41.31;99935.47;5303380;26;33786;-83
2023/06/20 06:53:14;;;;;;;;;;;;;;;28.25;40.97;99932.31;5303096;26;34123;-83
2023/06/20 06:55:48;;;;;;;;;;;;;;;28.44;40.86;99939.19;5321413;26;33752;-83
2023/06/20 06:58:16;;;;;;;;;;;;;;;28.59;40.48;99917.53;5304102;26;33516;-83
2023/06/20 07:00:43;;;;;;;;;;;;;;;28.40;40.23;99931.56;5321501;26;34358;-83
2023/06/20 07:03:11;;;;;;;;;;;;;;;28.43;40.16;99929.31;5320569;26;33382;-83
2023/06/20 07:05:39;;;;;;;;;;;;;;;28.83;39.26;99928.22;5304741;26;34658;-84
2023/06/20 07:08:08;;;;;;;;;;;;;;;28.05;40.51;99939.16;5305707;26;34119;-83
2023/06/20 07:10:36;;;;;;;;;;;;;;;28.49;39.86;99941.38;5305560;26;34777;-83
2023/06/20 07:13:06;;;;;;;;;;;;;;;28.75;39.33;99935.56;5305289;26;32453;-84
2023/06/20 07:15:33;;;;;;;;;;;;;;;28.47;39.37;99937.97;5324057;26;33923;-84
2023/06/20 07:18:00;;;;;;;;;;;;;;;28.74;39.91;99942.88;5323881;26;34210;-84
2023/06/20 07:20:28;;;;;;;;;;;;;;;28.65;38.91;99946.69;5323688;26;34228;-84
2023/06/20 07:22:55;;;;;;;;;;;;;;;28.71;38.91;99945.94;5323732;26;34174;-83
2023/06/20 07:25:23;;;;;;;;;;;;;;;29.06;39.94;99951.84;5323961;26;34184;-85
2023/06/20 07:27:51;;;;;;;;;;;;;;;29.17;39.51;99942.41;5287454;26;33910;-84
2023/06/20 07:30:18;;;;;;;;;;;;;;;29.44;38.71;99957.28;5305828;26;35065;-84
2023/06/20 07:32:48;;;;;;;;;;;;;;;29.15;38.66;99953.47;5322664;26;34181;-84
2023/06/20 07:35:16;;;;;;;;;;;;;;;29.02;38.85;99955.94;5322253;26;34648;-84
2023/06/20 07:37:43;;;;;;;;;;;;;;;29.21;37.07;99957.31;5286964;26;33191;-84
2023/06/20 07:40:11;;;;;;;;;;;;;;;29.63;36.49;99959.50;5323329;26;34087;-84
2023/06/20 07:42:38;;;;;;;;;;;;;;;29.46;36.96;99960.66;5323952;26;32548;-84
2023/06/20 07:45:06;;;;;;;;;;;;;;;29.90;36.95;99952.53;5322857;26;34688;-83
2023/06/20 07:47:34;;;;;;;;;;;;;;;29.89;36.50;99955.44;5323032;26;34029;-85
2023/06/20 07:50:03;;;;;;;;;;;;;;;29.45;37.73;99958.97;5323060;26;34428;-85
2023/06/20 07:52:32;;;;;;;;;;;;;;;29.59;36.74;99959.00;5306109;26;34327;-85
2023/06/20 07:55:01;;;;;;;;;;;;;;;29.69;38.21;99957.91;5322223;26;34292;-84
2023/06/20 07:57:34;;;;;;;;;;;;;;;29.97;37.70;99966.25;5323699;26;34110;-84
2023/06/20 08:00:11;;;;;;;;;;;;;;;29.71;36.39;99962.09;5286860;26;34044;-84
2023/06/20 08:02:39;;;;;;;;;;;;;;;29.79;37.29;99959.28;5323636;26;32130;-84
2023/06/20 08:05:08;;;;;;;;;;;;;;;29.64;38.43;99954.87;5306085;26;34985;-84
2023/06/20 08:07:36;;;;;;;;;;;;;;;30.33;39.28;99958.97;5305598;26;33816;-84
2023/06/20 08:10:07;;;;;;;;;;;;;;;30.64;36.73;99954.31;5305587;26;34222;-84
2023/06/20 08:12:36;;;;;;;;;;;;;;;30.72;35.03;99960.53;5323294;26;34064;-84
2023/06/20 08:15:07;;;;;;;;;;;;;;;30.79;36.21;99957.84;5323523;26;34897;-84
2023/06/20 08:17:35;;;;;;;;;;;;;;;30.99;35.70;99958.03;5305864;26;35009;-84
2023/06/20 08:20:09;;;;;;;;;;;;;;;31.37;34.41;99943.06;5323880;26;33873;-84
2023/06/20 08:22:37;;;;;;;;;;;;;;;30.94;34.78;99949.59;5306678;26;32293;-84
2023/06/20 08:25:05;;;;;;;;;;;;;;;31.30;35.64;99958.56;5304864;26;32988;-84
2023/06/20 08:27:32;;;;;;;;;;;;;;;30.65;35.14;99956.84;5287301;26;34281;-84
2023/06/20 08:30:00;;;;;;;;;;;;;;;31.41;34.98;99957.16;5287286;26;33564;-84
2023/06/20 08:32:28;;;;;;;;;;;;;;;31.38;35.75;99957.56;5341949;26;32939;-84
2023/06/20 08:34:55;;;;;;;;;;;;;;;31.39;36.48;99951.09;5323523;26;34249;-84
2023/06/20 08:37:24;;;;;;;;;;;;;;;31.62;34.75;99959.84;5305650;26;33162;-83
2023/06/20 08:39:55;;;;;;;;;;;;;;;31.65;34.82;99955.87;5322379;26;32998;-84
2023/06/20 08:42:23;;;;;;;;;;;;;;;31.45;34.35;99953.00;5287352;26;32919;-84
2023/06/20 08:44:50;;;;;;;;;;;;;;;31.53;35.38;99952.03;5324249;26;33480;-84
2023/06/20 08:47:25;;;;;;;;;;;;;;;31.89;34.82;99942.81;5325053;26;33538;-83
2023/06/20 08:49:53;;;;;;;;;;;;;;;31.77;34.69;99946.09;5323388;26;34181;-84
2023/06/20 08:52:30;;;;;;;;;;;;;;;31.95;33.74;99945.56;5305336;26;33162;-84
2023/06/20 08:54:58;;;;;;;;;;;;;;;32.12;34.38;99946.06;5305144;26;33043;-84
2023/06/20 08:57:25;;;;;;;;;;;;;;;32.25;32.96;99942.56;5323299;26;34166;-84
2023/06/20 08:59:54;;;;;;;;;;;;;;;32.02;32.88;99943.72;5323295;26;34519;-85
2023/06/20 09:02:22;;;;;;;;;;;;;;;32.22;33.69;99938.34;5305174;26;33067;-84
2023/06/20 09:04:59;;;;;;;;;;;;;;;31.86;34.80;99944.91;5323757;26;34423;-84
2023/06/20 09:07:33;;;;;;;;;;;;;;;31.94;33.35;99941.16;5322892;26;34728;-84
2023/06/20 09:10:03;;;;;;;;;;;;;;;32.42;32.96;99937.59;5305337;26;33833;-84
2023/06/20 09:12:44;;;;;;;;;;;;;;;32.71;32.37;99939.13;5323707;26;33665;-84
2023/06/20 09:15:13;;;;;;;;;;;;;;;32.50;33.44;99940.97;5305977;26;33762;-84
2023/06/20 09:17:41;;;;;;;;;;;;;;;32.41;32.53;99934.03;5305311;26;32997;-84
2023/06/20 09:20:13;;;;;;;;;;;;;;;32.80;31.87;99936.00;5323435;26;33708;-84
2023/06/20 09:22:41;;;;;;;;;;;;;;;33.23;32.59;99930.16;5323906;26;33665;-85
2023/06/20 09:25:09;;;;;;;;;;;;;;;33.36;31.11;99932.87;5323706;26;33656;-85
2023/06/20 09:27:40;;;;;;;;;;;;;;;33.30;30.81;99936.47;5305897;26;33853;-84
2023/06/20 09:30:08;;;;;;;;;;;;;;;33.73;30.41;99927.78;5323291;26;34196;-84
2023/06/20 09:32:37;;;;;;;;;;;;;;;33.50;28.46;99932.91;5322688;26;33661;-84
2023/06/20 09:35:05;;;;;;;;;;;;;;;32.73;29.51;99940.63;5323838;26;33860;-83
2023/06/20 09:37:35;;;;;;;;;;;;;;;32.66;30.34;99944.38;5323207;26;33481;-84
2023/06/20 09:40:08;;;;;;;;;;;;;;;33.46;29.87;99926.16;5323082;26;33531;-84
2023/06/20 09:42:39;;;;;;;;;;;;;;;33.83;28.75;99935.56;5306259;26;33407;-84
2023/06/20 09:45:10;;;;;;;;;;;;;;;34.08;28.54;99938.44;5323505;26;34185;-84
2023/06/20 09:47:38;;;;;;;;;;;;;;;34.10;28.11;99931.72;5305396;26;33174;-84
2023/06/20 09:50:13;;;;;;;;;;;;;;;33.64;29.68;99937.28;5305532;26;34075;-84
2023/06/20 09:52:44;;;;;;;;;;;;;;;33.95;28.50;99944.00;5343330;26;33575;-84
2023/06/20 09:55:12;;;;;;;;;;;;;;;33.20;29.13;99933.31;5323919;26;33978;-84
2023/06/20 09:57:43;;;;;;;;;;;;;;;33.54;28.33;99936.91;5305650;26;33677;-84
2023/06/20 10:00:15;;;;;;;;;;;;;;;34.07;28.20;99945.84;5323552;26;33940;-84
2023/06/20 10:02:44;;;;;;;;;;;;;;;33.97;27.57;99936.41;5323591;26;33545;-84
2023/06/20 10:05:19;;;;;;;;;;;;;;;34.24;27.74;99935.25;5305419;26;33966;-84
2023/06/20 10:07:47;;;;;;;;;;;;;;;34.52;26.57;99931.34;5304956;26;33337;-84
2023/06/20 10:10:15;;;;;;;;;;;;;;;33.67;28.23;99931.41;5304129;26;33917;-85
2023/06/20 10:12:43;;;;;;;;;;;;;;;34.25;26.66;99927.84;5322982;26;33348;-84
2023/06/20 10:15:16;;;;;;;;;;;;;;;34.69;26.17;99924.25;5305540;26;33450;-84
2023/06/20 10:17:46;;;;;;;;;;;;;;;34.35;28.35;99922.75;5323999;26;34118;-84
2023/06/20 10:20:23;;;;;;;;;;;;;;;34.54;26.53;99919.06;5324321;26;34044;-84
2023/06/20 10:22:51;;;;;;;;;;;;;;;34.49;25.84;99921.62;5324441;26;33566;-84
2023/06/20 10:25:18;;;;;;;;;;;;;;;34.64;24.91;99910.34;5323839;26;34506;-84
2023/06/20 10:27:56;;;;;;;;;;;;;;;35.00;25.76;99917.09;5324379;26;34221;-85
2023/06/20 10:30:43;;;;;;;;;;;;;;;34.65;25.78;99917.53;5324110;26;33881;-85
2023/06/20 10:33:10;;;;;;;;;;;;;;;34.64;25.25;99910.34;5324836;26;34368;-84
2023/06/20 10:35:48;;;;;;;;;;;;;;;34.49;26.44;99918.91;5324145;26;34701;-83
2023/06/20 10:38:15;;;;;;;;;;;;;;;34.94;25.75;99912.44;5324504;26;34947;-84
2023/06/20 10:40:44;;;;;;;;;;;;;;;34.54;24.70;99910.00;5323908;26;34486;-85
2023/06/20 10:43:15;;;;;;;;;;;;;;;34.72;23.26;99906.53;5306157;26;33100;-82
2023/06/20 10:45:59;;;;;;;;;;;;;;;34.64;24.51;99910.34;5323984;26;35505;-85
2023/06/20 10:48:28;;;;;;;;;;;;;;;34.75;25.38;99911.53;5288847;26;33087;-84
2023/06/20 10:50:59;;;;;;;;;;;;;;;34.83;25.29;99905.78;5324082;26;34248;-84
2023/06/20 10:53:27;;;;;;;;;;;;;;;34.59;25.38;99905.53;5288078;26;33080;-84
2023/06/20 10:55:55;;;;;;;;;;;;;;;34.36;25.76;99908.81;5324153;26;34228;-84
2023/06/20 10:58:23;;;;;;;;;;;;;;;34.33;26.66;99914.75;5305899;26;34916;-84
2023/06/20 11:00:59;;;;;;;;;;;;;;;34.35;26.09;99912.63;5325714;26;33914;-84
2023/06/20 11:03:27;;;;;;;;;;;;;;;33.77;26.44;99909.87;5304841;26;33237;-84
2023/06/20 11:05:55;;;;;;;;;;;;;;;33.76;27.77;99913.69;5303871;26;32708;-85
2023/06/20 11:08:27;;;;;;;;;;;;;;;33.95;27.46;99905.66;5322283;26;33869;-85
2023/06/20 11:10:54;;;;;;;;;;;;;;;34.07;26.66;99899.25;5324659;26;34421;-84
2023/06/20 11:13:23;;;;;;;;;;;;;;;34.33;26.38;99897.47;5305982;26;33573;-85
2023/06/20 11:15:51;;;;;;;;;;;;;;;34.53;25.61;99898.19;5287793;26;34225;-85
2023/06/20 11:18:18;;;;;;;;;;;;;;;34.48;26.57;99892.53;5305918;26;34698;-85
2023/06/20 11:20:46;;;;;;;;;;;;;;;34.51;26.84;99891.25;5323977;26;35111;-84
2023/06/20 11:23:14;;;;;;;;;;;;;;;34.67;27.05;99884.41;5324205;26;33897;-85
2023/06/20 11:25:42;;;;;;;;;;;;;;;34.76;26.52;99881.16;5305239;26;32939;-84
2023/06/20 11:28:13;;;;;;;;;;;;;;;34.45;27.33;99881.97;5306206;26;32977;-84
2023/06/20 11:30:41;;;;;;;;;;;;;;;34.84;26.45;99878.13;5287347;26;34202;-84
2023/06/20 11:33:13;;;;;;;;;;;;;;;34.94;26.35;99872.13;5324216;26;33424;-84
2023/06/20 11:35:41;;;;;;;;;;;;;;;34.89;26.26;99874.72;5305922;26;33231;-84
2023/06/20 11:38:13;;;;;;;;;;;;;;;35.12;26.21;99874.13;5305717;26;34641;-84
2023/06/20 11:40:41;;;;;;;;;;;;;;;35.16;24.99;99869.88;5324274;26;34161;-85
2023/06/20 11:43:23;;;;;;;;;;;;;;;35.21;25.66;99872.78;5324173;26;34092;-84
2023/06/20 11:45:50;;;;;;;;;;;;;;;35.27;25.29;99871.03;5287940;26;33270;-84
2023/06/20 11:48:19;;;;;;;;;;;;;;;35.20;25.43;99873.84;5287995;26;952504;-84
2023/06/20 11:50:54;;;;;;;;;;;;;;;34.55;24.67;99870.56;5323663;26;34526;-84
2023/06/20 11:53:25;;;;;;;;;;;;;;;35.33;24.79;99870.97;5343747;26;34020;-84
2023/06/20 11:55:53;;;;;;;;;;;;;;;35.26;24.65;99870.19;5306135;26;34231;-84
2023/06/20 11:58:21;;;;;;;;;;;;;;;35.31;23.46;99866.75;5306164;26;34677;-84
2023/06/20 12:01:04;;;;;;;;;;;;;;;35.38;23.46;99868.38;5324213;26;34923;-85
2023/06/20 12:03:32;;;;;;;;;;;;;;;35.14;24.92;99861.03;5324178;26;33408;-85
2023/06/20 12:05:59;;;;;;;;;;;;;;;35.25;24.53;99870.44;5323832;26;33767;-85
2023/06/20 12:08:31;;;;;;;;;;;;;;;35.68;24.08;99862.16;5305865;26;35006;-85
2023/06/20 12:11:00;;;;;;;;;;;;;;;35.20;24.00;99860.12;5323664;26;34478;-84
2023/06/20 12:13:28;;;;;;;;;;;;;;;34.96;23.97;99861.00;5324057;26;33378;-84
2023/06/20 12:15:56;;;;;;;;;;;;;;;35.19;24.04;99858.44;5305938;26;34698;-85
2023/06/20 12:18:24;;;;;;;;;;;;;;;35.52;23.32;99854.56;5305913;26;34138;-84
2023/06/20 12:20:51;;;;;;;;;;;;;;;35.75;24.08;99857.44;5323777;26;34852;-85
2023/06/20 12:23:31;;;;;;;;;;;;;;;35.87;22.20;99850.09;5307526;26;32343;-84
2023/06/20 12:25:58;;;;;;;;;;;;;;;35.74;23.04;99858.50;5305556;26;34071;-85
2023/06/20 12:28:25;;;;;;;;;;;;;;;35.82;23.01;99847.19;5305466;26;33738;-85
2023/06/20 12:30:54;;;;;;;;;;;;;;;35.80;22.35;99843.84;5287547;26;33069;-85
2023/06/20 12:33:21;;;;;;;;;;;;;;;35.39;22.54;99839.88;5305676;26;32675;-85
2023/06/20 12:35:48;;;;;;;;;;;;;;;35.00;24.24;99834.78;5323773;26;33717;-85
2023/06/20 12:38:16;;;;;;;;;;;;;;;34.94;24.55;99838.38;5343502;26;33971;-85
2023/06/20 12:40:44;;;;;;;;;;;;;;;34.85;23.68;99835.94;5305272;26;34531;-84
2023/06/20 12:43:11;;;;;;;;;;;;;;;35.21;23.76;99834.34;5323112;26;32951;-84
2023/06/20 12:45:39;;;;;;;;;;;;;;;35.37;24.90;99832.91;5323662;26;34226;-85
2023/06/20 12:48:06;;;;;;;;;;;;;;;35.62;22.50;99832.87;5305001;26;33834;-85
2023/06/20 12:50:34;;;;;;;;;;;;;;;35.96;22.40;99825.09;5323259;26;34057;-86
2023/06/20 12:53:02;;;;;;;;;;;;;;;35.64;22.56;99826.06;5324108;26;33400;-85
2023/06/20 12:55:31;;;;;;;;;;;;;;;35.76;22.63;99819.81;5323851;26;33966;-86
2023/06/20 12:57:58;;;;;;;;;;;;;;;35.55;23.29;99832.09;5305144;26;34186;-86